Time;durP1;ratioP1;P1;durP2;ratioP2;P2;SDS_P1;SDS_P2;PMS_P1;PMS_P2;Temp;Humidity;BMP_temperature;BMP_pressure;BME280_temperature;BME280_humidity;BME280_pressure;Samples;Min_cycle;Max_cycle;Signal;HPM_P1;HPM_P2
2024/04/12 00:02:26;0.00;0.00;0.62;0.00;0.00;0.62;3.70;3.13;;;26.10;25.90;;;;;;2041907;62;20470;-70
2024/04/12 00:05:12;0.00;0.00;0.62;0.00;0.00;0.62;3.70;3.40;;;26.10;25.90;;;;;;2042243;62;21010;-71
2024/04/12 00:08:04;0.00;0.00;0.62;0.00;0.00;0.62;3.97;3.37;;;26.10;25.90;;;;;;2042108;62;20528;-69
2024/04/12 00:10:51;0.00;0.00;0.62;0.00;0.00;0.62;4.03;3.63;;;26.10;25.90;;;;;;2041984;62;20461;-70
2024/04/12 00:13:41;0.00;0.00;0.62;0.00;0.00;0.62;4.20;3.80;;;26.10;25.90;;;;;;2042285;62;20917;-70
2024/04/12 00:16:25;0.00;0.00;0.62;0.00;0.00;0.62;3.90;3.33;;;26.10;26.50;;;;;;2041827;62;20544;-71
2024/04/12 00:19:18;0.00;0.00;0.62;0.00;0.00;0.62;4.47;3.33;;;26.10;25.90;;;;;;2042136;62;20548;-69
2024/04/12 00:22:03;0.00;0.00;0.62;0.00;0.00;0.62;4.63;3.20;;;26.10;26.00;;;;;;2042244;62;20933;-71
2024/04/12 00:24:48;0.00;0.00;0.62;0.00;0.00;0.62;3.80;3.47;;;26.10;25.90;;;;;;2042033;62;20493;-70
2024/04/12 00:27:33;0.00;0.00;0.62;0.00;0.00;0.62;3.13;2.83;;;26.10;26.00;;;;;;2042279;62;20478;-70
2024/04/12 00:30:37;0.00;0.00;0.62;0.00;0.00;0.62;3.43;3.13;;;26.10;26.00;;;;;;2041760;62;20504;-70
2024/04/12 00:33:22;0.00;0.00;0.62;0.00;0.00;0.62;3.70;3.40;;;26.10;26.50;;;;;;2038126;62;20485;-72
2024/04/12 00:36:13;0.00;0.00;0.62;0.00;0.00;0.62;4.93;3.57;;;26.10;26.00;;;;;;2042414;62;20543;-70
2024/04/12 00:38:58;0.00;0.00;0.62;0.00;0.00;0.62;3.30;3.00;;;26.10;26.00;;;;;;2041862;62;20534;-72
2024/04/12 00:41:42;0.00;0.00;0.62;0.00;0.00;0.62;3.33;3.03;;;26.10;26.00;;;;;;2042435;62;20982;-70
2024/04/12 00:44:29;0.00;0.00;0.62;0.00;0.00;0.62;4.97;3.53;;;26.10;26.00;;;;;;2042427;62;20532;-70
2024/04/12 00:47:15;0.00;0.00;0.62;0.00;0.00;0.62;3.67;2.90;;;26.10;26.00;;;;;;2042099;62;20496;-70
2024/04/12 00:50:03;0.00;0.00;0.62;0.00;0.00;0.62;4.07;3.27;;;26.10;26.00;;;;;;2042261;62;20472;-70
2024/04/12 00:52:52;0.00;0.00;0.62;0.00;0.00;0.62;3.37;2.80;;;26.10;26.00;;;;;;2042082;62;20520;-70
2024/04/12 00:55:39;0.00;0.00;0.62;0.00;0.00;0.62;4.33;3.10;;;26.10;26.00;;;;;;2041925;62;20473;-70
2024/04/12 00:58:25;0.00;0.00;0.62;0.00;0.00;0.62;3.83;3.07;;;26.10;26.00;;;;;;2038140;62;20519;-70
2024/04/12 01:01:15;0.00;0.00;0.62;0.00;0.00;0.62;4.30;3.60;;;26.10;26.00;;;;;;2042041;62;20817;-70
2024/04/12 01:04:00;0.00;0.00;0.62;0.00;0.00;0.62;3.80;2.83;;;26.10;26.00;;;;;;2042281;62;20466;-70
2024/04/12 01:06:44;0.00;0.00;0.62;0.00;0.00;0.62;4.37;3.50;;;26.10;26.00;;;;;;2042536;62;20523;-70
2024/04/12 01:09:35;0.00;0.00;0.62;0.00;0.00;0.62;3.40;3.10;;;26.10;26.60;;;;;;2042089;62;20527;-70
2024/04/12 01:12:20;0.00;0.00;0.62;0.00;0.00;0.62;3.53;3.00;;;26.10;26.00;;;;;;2042284;62;20473;-70
2024/04/12 01:15:07;0.00;0.00;0.62;0.00;0.00;0.62;3.33;2.90;;;26.10;26.00;;;;;;2042189;62;20462;-70
2024/04/12 01:17:52;0.00;0.00;0.62;0.00;0.00;0.62;3.30;3.00;;;26.10;26.00;;;;;;2042024;62;21028;-70
2024/04/12 01:20:39;0.00;0.00;0.62;0.00;0.00;0.62;3.63;3.30;;;26.10;26.00;;;;;;2038441;62;20501;-70
2024/04/12 01:23:24;0.00;0.00;0.62;0.00;0.00;0.62;5.23;3.57;;;26.00;26.00;;;;;;2042050;62;20982;-71
2024/04/12 01:26:12;0.00;0.00;0.62;0.00;0.00;0.62;4.33;3.90;;;26.10;26.00;;;;;;2042201;62;20503;-72
2024/04/12 01:28:58;0.00;0.00;0.62;0.00;0.00;0.62;3.20;2.67;;;26.10;26.60;;;;;;2042287;62;20489;-70
2024/04/12 01:31:44;0.00;0.00;0.62;0.00;0.00;0.62;6.10;3.83;;;26.10;26.10;;;;;;2042216;62;20469;-71
2024/04/12 01:34:30;0.00;0.00;0.62;0.00;0.00;0.62;3.37;2.90;;;26.10;26.10;;;;;;2042219;62;20544;-70
2024/04/12 01:37:15;0.00;0.00;0.62;0.00;0.00;0.62;3.17;2.87;;;26.10;26.10;;;;;;2042139;62;20523;-70
2024/04/12 01:40:02;0.00;0.00;0.62;0.00;0.00;0.62;3.33;3.03;;;26.10;26.10;;;;;;2034226;62;20469;-70
2024/04/12 01:42:51;0.00;0.00;0.62;0.00;0.00;0.62;3.47;2.83;;;26.10;26.10;;;;;;2038336;62;20557;-69
2024/04/12 01:45:39;0.00;0.00;0.62;0.00;0.00;0.62;3.53;2.70;;;26.10;26.10;;;;;;2041978;62;20535;-70
2024/04/12 01:48:24;0.00;0.00;0.62;0.00;0.00;0.62;4.37;2.90;;;26.10;26.10;;;;;;2042201;62;20523;-70
2024/04/12 01:51:13;0.00;0.00;0.62;0.00;0.00;0.62;3.87;3.47;;;26.10;26.10;;;;;;2039348;62;21087;-70
2024/04/12 01:53:58;0.00;0.00;0.62;0.00;0.00;0.62;3.63;3.30;;;26.10;26.10;;;;;;2041926;62;20519;-70
2024/04/12 01:56:47;0.00;0.00;0.62;0.00;0.00;0.62;4.30;3.23;;;26.10;26.10;;;;;;2041417;62;20469;-72
2024/04/12 01:59:34;0.00;0.00;0.62;0.00;0.00;0.62;3.27;2.60;;;26.10;26.10;;;;;;2042129;62;21068;-70
2024/04/12 02:02:19;0.00;0.00;0.62;0.00;0.00;0.62;4.10;3.00;;;26.00;26.00;;;;;;2042033;62;20531;-70
2024/04/12 02:05:04;0.00;0.00;0.62;0.00;0.00;0.62;3.47;3.13;;;26.10;26.10;;;;;;2042086;62;20479;-70
2024/04/12 02:07:49;0.00;0.00;0.62;0.00;0.00;0.62;3.33;2.60;;;26.10;26.20;;;;;;2042072;62;20935;-70
2024/04/12 02:10:34;0.00;0.00;0.62;0.00;0.00;0.62;3.73;3.17;;;26.10;26.10;;;;;;2042211;62;20958;-70
2024/04/12 02:13:20;0.00;0.00;0.62;0.00;0.00;0.62;3.50;2.63;;;26.10;26.20;;;;;;2042133;62;20500;-70
2024/04/12 02:16:10;0.00;0.00;0.62;0.00;0.00;0.62;3.50;2.87;;;26.10;26.10;;;;;;2041996;62;20466;-70
2024/04/12 02:18:56;0.00;0.00;0.62;0.00;0.00;0.62;4.90;3.60;;;26.10;26.20;;;;;;2041679;62;20571;-70
2024/04/12 02:21:41;0.00;0.00;0.62;0.00;0.00;0.62;3.23;2.90;;;26.10;26.20;;;;;;2042309;62;20466;-70
2024/04/12 02:24:26;0.00;0.00;0.62;0.00;0.00;0.62;4.07;3.10;;;26.10;26.20;;;;;;2041628;62;20481;-70
2024/04/12 02:27:11;0.00;0.00;0.62;0.00;0.00;0.62;4.93;3.20;;;26.10;26.20;;;;;;2042000;62;20465;-70
2024/04/12 02:29:55;0.00;0.00;0.62;0.00;0.00;0.62;3.87;3.47;;;26.10;26.20;;;;;;2038002;62;20645;-72
2024/04/12 02:32:45;0.00;0.00;0.62;0.00;0.00;0.62;3.97;3.50;;;26.10;26.20;;;;;;2042035;62;21073;-71
2024/04/12 02:35:30;0.00;0.00;0.62;0.00;0.00;0.62;3.67;3.27;;;26.00;26.10;;;;;;2037716;62;20469;-71
2024/04/12 02:38:20;0.00;0.00;0.62;0.00;0.00;0.62;4.80;3.10;;;26.10;26.20;;;;;;2041883;62;20458;-69
2024/04/12 02:41:06;0.00;0.00;0.62;0.00;0.00;0.62;4.10;3.70;;;26.10;26.20;;;;;;2041763;62;20786;-69
2024/04/12 02:43:55;0.00;0.00;0.62;0.00;0.00;0.62;3.17;2.87;;;26.00;26.10;;;;;;2042144;62;20470;-69
2024/04/12 02:46:40;0.00;0.00;0.62;0.00;0.00;0.62;3.57;3.07;;;26.00;26.10;;;;;;2038332;62;20465;-69
2024/04/12 02:49:28;0.00;0.00;0.62;0.00;0.00;0.62;4.43;2.90;;;26.10;26.20;;;;;;2042119;62;20900;-69
2024/04/12 02:52:13;0.00;0.00;0.62;0.00;0.00;0.62;3.20;2.90;;;26.00;26.20;;;;;;2042581;62;20469;-70
2024/04/12 02:54:58;0.00;0.00;0.62;0.00;0.00;0.62;3.30;2.90;;;26.00;26.20;;;;;;2042574;62;20530;-69
2024/04/12 02:57:43;0.00;0.00;0.62;0.00;0.00;0.62;3.70;3.40;;;26.00;26.20;;;;;;2038080;62;20510;-69
2024/04/12 03:00:29;0.00;0.00;0.62;0.00;0.00;0.62;4.40;3.30;;;26.10;26.20;;;;;;2042265;62;21014;-69
2024/04/12 03:03:14;0.00;0.00;0.62;0.00;0.00;0.62;4.40;2.93;;;26.00;26.10;;;;;;2042132;62;20539;-70
2024/04/12 03:06:02;0.00;0.00;0.62;0.00;0.00;0.62;3.17;2.50;;;26.00;26.10;;;;;;2042514;54;20953;-69
2024/04/12 03:08:47;0.00;0.00;0.62;0.00;0.00;0.62;3.60;3.13;;;26.10;26.20;;;;;;2042212;62;20481;-70
2024/04/12 03:11:35;0.00;0.00;0.62;0.00;0.00;0.62;3.90;3.03;;;26.10;26.20;;;;;;2042267;62;20909;-70
2024/04/12 03:14:20;0.00;0.00;0.62;0.00;0.00;0.62;3.27;2.87;;;26.00;26.10;;;;;;2042408;62;20465;-70
2024/04/12 03:17:05;0.00;0.00;0.62;0.00;0.00;0.62;2.63;2.37;;;26.10;26.20;;;;;;2042447;62;20457;-70
2024/04/12 03:19:49;0.00;0.00;0.62;0.00;0.00;0.62;3.23;2.93;;;26.00;26.20;;;;;;2042037;62;20473;-69
2024/04/12 03:22:36;0.00;0.00;0.62;0.00;0.00;0.62;4.33;2.93;;;26.00;26.20;;;;;;2042290;62;20524;-69
2024/04/12 03:25:22;0.00;0.00;0.62;0.00;0.00;0.62;3.40;2.67;;;26.00;26.20;;;;;;2042152;62;20473;-71
2024/04/12 03:28:08;0.00;0.00;0.62;0.00;0.00;0.62;3.13;2.83;;;26.10;26.20;;;;;;2042686;62;20461;-69
2024/04/12 03:30:54;0.00;0.00;0.62;0.00;0.00;0.62;3.10;2.80;;;26.00;26.20;;;;;;2042339;62;20499;-71
2024/04/12 03:33:44;0.00;0.00;0.62;0.00;0.00;0.62;3.00;2.60;;;26.10;26.30;;;;;;2042114;62;20486;-69
2024/04/12 03:36:33;0.00;0.00;0.62;0.00;0.00;0.62;3.53;3.03;;;26.10;26.30;;;;;;2042442;62;20493;-70
2024/04/12 03:42:08;0.00;0.00;0.62;0.00;0.00;0.62;4.03;3.17;;;26.00;26.20;;;;;;2042212;62;20460;-69
2024/04/12 03:44:54;0.00;0.00;0.62;0.00;0.00;0.62;3.27;2.90;;;26.00;26.20;;;;;;2038281;62;20465;-69
2024/04/12 03:47:45;0.00;0.00;0.62;0.00;0.00;0.62;2.73;2.53;;;26.00;26.20;;;;;;2041978;62;20799;-71
2024/04/12 03:50:30;0.00;0.00;0.62;0.00;0.00;0.62;2.73;2.50;;;26.00;26.20;;;;;;2042684;62;20875;-69
2024/04/12 03:53:15;0.00;0.00;0.62;0.00;0.00;0.62;4.50;2.70;;;26.00;26.20;;;;;;2042213;62;20461;-70
2024/04/12 03:56:03;0.00;0.00;0.62;0.00;0.00;0.62;4.47;2.77;;;26.00;26.20;;;;;;2041899;62;20474;-70
2024/04/12 03:59:00;0.00;0.00;0.62;0.00;0.00;0.62;2.63;2.30;;;26.00;26.20;;;;;;2038159;62;20535;-70
2024/04/12 04:01:45;0.00;0.00;0.62;0.00;0.00;0.62;3.73;2.73;;;26.00;26.30;;;;;;2042439;62;20469;-71
2024/04/12 04:04:37;0.00;0.00;0.62;0.00;0.00;0.62;3.60;2.93;;;26.00;26.20;;;;;;2042273;62;20541;-70
2024/04/12 04:07:22;0.00;0.00;0.62;0.00;0.00;0.62;2.33;2.13;;;26.00;26.30;;;;;;2042177;62;20499;-69
2024/04/12 04:10:13;0.00;0.00;0.62;0.00;0.00;0.62;2.93;2.63;;;26.00;26.20;;;;;;2041988;62;20477;-69
2024/04/12 04:13:03;0.00;0.00;0.62;0.00;0.00;0.62;2.87;2.60;;;26.00;26.30;;;;;;2042621;62;20521;-70
2024/04/12 04:15:55;0.00;0.00;0.62;0.00;0.00;0.62;3.20;2.90;;;26.00;26.20;;;;;;2042343;62;20469;-70
2024/04/12 04:18:41;0.00;0.00;0.62;0.00;0.00;0.62;3.23;2.63;;;26.00;26.30;;;;;;2042128;62;20936;-70
2024/04/12 04:21:26;0.00;0.00;0.62;0.00;0.00;0.62;3.23;2.80;;;26.00;26.20;;;;;;2042418;62;20473;-70
2024/04/12 04:24:10;0.00;0.00;0.62;0.00;0.00;0.62;2.97;2.53;;;26.00;26.30;;;;;;2042644;62;20482;-69
2024/04/12 04:26:56;0.00;0.00;0.62;0.00;0.00;0.62;3.17;2.87;;;26.00;26.30;;;;;;2042673;62;20506;-69
2024/04/12 04:29:44;0.00;0.00;0.62;0.00;0.00;0.62;3.37;3.03;;;26.00;26.30;;;;;;2041988;62;20542;-69
2024/04/12 04:32:28;0.00;0.00;0.62;0.00;0.00;0.62;3.03;2.63;;;26.00;26.30;;;;;;2042069;62;20875;-70
2024/04/12 04:35:13;0.00;0.00;0.62;0.00;0.00;0.62;3.20;2.83;;;26.00;26.30;;;;;;2038395;62;20503;-70
2024/04/12 04:37:58;0.00;0.00;0.62;0.00;0.00;0.62;4.07;2.70;;;26.00;26.30;;;;;;2034400;62;20473;-70
2024/04/12 04:40:43;0.00;0.00;0.62;0.00;0.00;0.62;3.20;2.90;;;26.00;26.30;;;;;;2042327;62;20474;-69
2024/04/12 04:43:30;0.00;0.00;0.62;0.00;0.00;0.62;2.37;2.00;;;26.00;26.30;;;;;;2038091;62;20484;-69
2024/04/12 04:46:26;0.00;0.00;0.62;0.00;0.00;0.62;3.40;3.10;;;26.00;26.30;;;;;;2042195;62;20457;-70
2024/04/12 04:49:13;0.00;0.00;0.62;0.00;0.00;0.62;3.53;3.10;;;26.00;26.30;;;;;;2038167;62;21022;-69
2024/04/12 04:52:00;0.00;0.00;0.62;0.00;0.00;0.62;5.20;4.10;;;26.00;26.30;;;;;;2038067;62;20469;-69
2024/04/12 04:54:46;0.00;0.00;0.62;0.00;0.00;0.62;3.40;3.03;;;26.00;26.30;;;;;;2042328;62;20469;-69
2024/04/12 04:57:35;0.00;0.00;0.62;0.00;0.00;0.62;3.83;3.00;;;26.00;26.30;;;;;;2042521;62;20499;-70
2024/04/12 05:00:24;0.00;0.00;0.62;0.00;0.00;0.62;3.77;3.00;;;26.00;26.30;;;;;;2042316;62;20878;-69
2024/04/12 05:03:15;0.00;0.00;0.62;0.00;0.00;0.62;5.20;3.90;;;26.00;26.30;;;;;;2042252;62;20469;-70
2024/04/12 05:06:05;0.00;0.00;0.62;0.00;0.00;0.62;5.10;4.60;;;26.00;26.40;;;;;;2038108;62;20465;-69
2024/04/12 05:08:52;0.00;0.00;0.62;0.00;0.00;0.62;4.70;4.20;;;26.00;26.40;;;;;;2041322;62;20569;-69
2024/04/12 05:11:38;0.00;0.00;0.62;0.00;0.00;0.62;6.47;4.10;;;26.00;26.40;;;;;;2038360;62;20461;-70
2024/04/12 05:17:21;0.00;0.00;0.62;0.00;0.00;0.62;6.23;4.90;;;26.00;26.40;;;;;;2042039;62;20934;-69
2024/04/12 05:20:19;0.00;0.00;0.62;0.00;0.00;0.62;5.43;4.30;;;26.00;26.40;;;;;;2042115;62;20473;-69
2024/04/12 05:23:03;0.00;0.00;0.62;0.00;0.00;0.62;4.83;4.43;;;26.00;26.40;;;;;;2042393;62;21104;-70
2024/04/12 05:25:49;0.00;0.00;0.62;0.00;0.00;0.62;6.10;5.40;;;26.00;26.40;;;;;;2042040;62;20540;-69
2024/04/12 05:28:34;0.00;0.00;0.62;0.00;0.00;0.62;5.50;4.77;;;26.00;26.30;;;;;;2042131;62;20477;-69
2024/04/12 05:31:20;0.00;0.00;0.62;0.00;0.00;0.62;5.90;4.73;;;26.00;26.40;;;;;;2042020;62;20466;-70
2024/04/12 05:34:05;0.00;0.00;0.62;0.00;0.00;0.62;6.13;4.43;;;26.00;26.40;;;;;;2042309;62;21030;-70
2024/04/12 05:36:55;0.00;0.00;0.62;0.00;0.00;0.62;5.90;4.80;;;26.00;26.40;;;;;;2042026;62;20470;-70
2024/04/12 05:39:41;0.00;0.00;0.62;0.00;0.00;0.62;6.77;5.50;;;26.00;26.40;;;;;;2042116;62;20469;-69
2024/04/12 05:42:26;0.00;0.00;0.62;0.00;0.00;0.62;7.00;5.90;;;26.00;26.40;;;;;;2042381;62;20659;-70
2024/04/12 05:45:11;0.00;0.00;0.62;0.00;0.00;0.62;6.37;5.77;;;26.00;26.40;;;;;;2042690;54;20485;-70
2024/04/12 05:47:59;0.00;0.00;0.62;0.00;0.00;0.62;6.70;5.80;;;26.00;26.40;;;;;;2042266;62;20543;-69
2024/04/12 05:50:48;0.00;0.00;0.62;0.00;0.00;0.62;6.63;5.93;;;26.00;26.60;;;;;;2042251;62;20474;-69
2024/04/12 05:53:37;0.00;0.00;0.62;0.00;0.00;0.62;7.00;5.97;;;26.00;26.40;;;;;;2042111;62;20482;-73
2024/04/12 05:56:25;0.00;0.00;0.62;0.00;0.00;0.62;6.20;5.50;;;26.00;26.90;;;;;;2042618;62;20465;-69
2024/04/12 05:59:13;0.00;0.00;0.62;0.00;0.00;0.62;7.17;5.90;;;26.00;26.40;;;;;;2042629;62;20516;-70
2024/04/12 06:02:01;0.00;0.00;0.62;0.00;0.00;0.62;7.20;6.10;;;26.00;26.40;;;;;;2047245;62;21013;-69
2024/04/12 06:04:47;0.00;0.00;0.62;0.00;0.00;0.62;7.07;6.33;;;26.00;26.40;;;;;;2046836;62;20882;-74
2024/04/12 06:07:35;0.00;0.00;0.62;0.00;0.00;0.62;6.77;6.00;;;26.00;26.40;;;;;;2047227;62;20472;-70
2024/04/12 06:10:22;0.00;0.00;0.62;0.00;0.00;0.62;10.17;7.77;;;26.00;26.40;;;;;;2047225;62;20464;-70
2024/04/12 06:13:10;0.00;0.00;0.62;0.00;0.00;0.62;6.97;6.17;;;26.00;26.40;;;;;;2047085;62;20534;-71
2024/04/12 06:15:55;0.00;0.00;0.62;0.00;0.00;0.62;6.90;6.30;;;26.00;26.40;;;;;;2047063;62;20659;-69
2024/04/12 06:18:39;0.00;0.00;0.62;0.00;0.00;0.62;7.67;6.87;;;26.00;26.40;;;;;;2047303;62;20476;-68
2024/04/12 06:21:24;0.00;0.00;0.62;0.00;0.00;0.62;8.80;6.73;;;26.00;26.40;;;;;;2047858;62;20468;-69
2024/04/12 06:24:09;0.00;0.00;0.62;0.00;0.00;0.62;6.50;5.90;;;26.00;26.40;;;;;;2047264;62;21101;-69
2024/04/12 06:26:57;0.00;0.00;0.62;0.00;0.00;0.62;7.97;6.77;;;26.00;26.50;;;;;;2047794;62;20467;-69
2024/04/12 06:29:46;0.00;0.00;0.62;0.00;0.00;0.62;7.90;7.17;;;26.00;26.50;;;;;;2047659;62;20935;-69
2024/04/12 06:32:31;0.00;0.00;0.62;0.00;0.00;0.62;8.40;7.30;;;26.00;26.50;;;;;;2047494;62;20501;-69
2024/04/12 06:35:20;0.00;0.00;0.62;0.00;0.00;0.62;8.97;7.03;;;26.00;26.50;;;;;;2047473;62;20934;-70
2024/04/12 06:38:08;0.00;0.00;0.62;0.00;0.00;0.62;7.47;6.47;;;26.00;26.50;;;;;;2047311;62;20537;-69
2024/04/12 06:41:00;0.00;0.00;0.62;0.00;0.00;0.62;8.00;7.20;;;26.00;26.50;;;;;;2047857;62;21075;-70
2024/04/12 06:43:49;0.00;0.00;0.62;0.00;0.00;0.62;7.43;6.73;;;26.00;26.50;;;;;;2047971;62;20869;-72
2024/04/12 06:46:36;0.00;0.00;0.62;0.00;0.00;0.62;7.20;6.50;;;26.00;26.50;;;;;;2047649;62;20489;-70
2024/04/12 06:49:26;0.00;0.00;0.62;0.00;0.00;0.62;7.57;6.23;;;26.00;26.50;;;;;;2047356;62;20463;-70
2024/04/12 06:52:12;0.00;0.00;0.62;0.00;0.00;0.62;7.57;6.57;;;26.00;26.50;;;;;;2047611;62;20472;-73
2024/04/12 06:55:01;0.00;0.00;0.62;0.00;0.00;0.62;7.13;6.33;;;26.00;26.50;;;;;;2047700;62;21154;-70
2024/04/12 06:57:45;0.00;0.00;0.62;0.00;0.00;0.62;6.90;6.20;;;26.00;26.60;;;;;;2047472;62;20479;-69
2024/04/12 07:00:37;0.00;0.00;0.62;0.00;0.00;0.62;8.17;6.20;;;26.00;26.60;;;;;;2043203;62;20464;-70
2024/04/12 07:03:22;0.00;0.00;0.62;0.00;0.00;0.62;8.00;6.13;;;26.00;26.60;;;;;;2047663;62;20492;-69
2024/04/12 07:06:07;0.00;0.00;0.62;0.00;0.00;0.62;7.90;6.00;;;26.00;26.60;;;;;;2047678;62;20484;-69
2024/04/12 07:08:52;0.00;0.00;0.62;0.00;0.00;0.62;9.20;6.37;;;26.00;26.60;;;;;;2047231;62;20468;-69
2024/04/12 07:11:39;0.00;0.00;0.62;0.00;0.00;0.62;9.10;5.60;;;26.00;26.60;;;;;;2047584;62;20481;-69
2024/04/12 07:14:24;0.00;0.00;0.62;0.00;0.00;0.62;8.67;5.50;;;26.00;26.60;;;;;;2047535;62;21101;-72
2024/04/12 07:17:22;0.00;0.00;0.62;0.00;0.00;0.62;6.40;5.33;;;26.00;26.60;;;;;;2047838;62;20876;-69
2024/04/12 07:20:13;0.00;0.00;0.62;0.00;0.00;0.62;5.63;4.93;;;26.00;26.60;;;;;;2048049;62;20489;-68
2024/04/12 07:22:58;0.00;0.00;0.62;0.00;0.00;0.62;5.30;4.80;;;26.00;26.60;;;;;;2046814;62;20497;-69
2024/04/12 07:25:45;0.00;0.00;0.62;0.00;0.00;0.62;6.77;5.27;;;26.00;26.70;;;;;;2046844;62;20534;-68
2024/04/12 07:28:30;0.00;0.00;0.62;0.00;0.00;0.62;5.50;4.40;;;26.00;26.70;;;;;;2045283;62;21145;-69
2024/04/12 07:31:18;0.00;0.00;0.62;0.00;0.00;0.62;6.10;5.43;;;26.00;26.70;;;;;;2041495;62;20470;-67
2024/04/12 07:34:06;0.00;0.00;0.62;0.00;0.00;0.62;5.77;4.90;;;26.00;26.70;;;;;;2034001;62;20554;-69
2024/04/12 07:36:52;0.00;0.00;0.62;0.00;0.00;0.62;8.30;4.70;;;26.00;26.70;;;;;;2041426;62;20470;-68
2024/04/12 07:39:40;0.00;0.00;0.62;0.00;0.00;0.62;6.07;5.50;;;26.00;26.70;;;;;;2041807;62;20568;-67
2024/04/12 07:42:26;0.00;0.00;0.62;0.00;0.00;0.62;5.67;4.67;;;26.00;26.70;;;;;;2041521;62;20850;-68
2024/04/12 07:45:16;0.00;0.00;0.62;0.00;0.00;0.62;5.07;4.57;;;26.00;26.70;;;;;;2041678;62;20462;-68
2024/04/12 07:48:11;0.00;0.00;0.62;0.00;0.00;0.62;5.27;4.77;;;26.00;26.70;;;;;;2045431;62;20505;-68
2024/04/12 07:51:00;0.00;0.00;0.62;0.00;0.00;0.62;5.53;4.50;;;26.00;26.70;;;;;;2046244;62;20487;-68
2024/04/12 07:53:45;0.00;0.00;0.62;0.00;0.00;0.62;7.13;4.80;;;26.00;26.70;;;;;;2046655;62;20476;-68
2024/04/12 07:56:37;0.00;0.00;0.62;0.00;0.00;0.62;6.20;5.00;;;26.00;26.70;;;;;;2046765;62;20468;-68
2024/04/12 07:59:25;0.00;0.00;0.62;0.00;0.00;0.62;6.07;4.60;;;26.00;26.70;;;;;;2046490;62;20472;-68
2024/04/12 08:02:17;0.00;0.00;0.62;0.00;0.00;0.62;5.30;4.37;;;26.00;26.70;;;;;;2047091;62;20541;-69
2024/04/12 08:05:14;0.00;0.00;0.62;0.00;0.00;0.62;6.10;5.00;;;26.00;26.70;;;;;;2046577;62;20476;-68
2024/04/12 08:08:14;0.00;0.00;0.62;0.00;0.00;0.62;6.60;5.37;;;26.00;26.70;;;;;;2046604;62;20464;-67
2024/04/12 08:11:11;0.00;0.00;0.62;0.00;0.00;0.62;15.60;5.57;;;26.00;26.70;;;;;;2046804;62;20464;-68
2024/04/12 08:14:05;0.00;0.00;0.62;0.00;0.00;0.62;5.60;4.60;;;26.00;26.70;;;;;;2046502;62;20455;-66
2024/04/12 08:16:54;0.00;0.00;0.62;0.00;0.00;0.62;5.33;4.50;;;26.00;26.70;;;;;;2042978;62;21029;-68
2024/04/12 08:19:39;0.00;0.00;0.62;0.00;0.00;0.62;6.97;5.10;;;26.00;26.70;;;;;;2041206;62;20466;-68
2024/04/12 08:22:25;0.00;0.00;0.62;0.00;0.00;0.62;5.90;5.30;;;26.10;26.80;;;;;;2041595;62;20940;-68
2024/04/12 08:25:18;0.00;0.00;0.62;0.00;0.00;0.62;7.27;4.70;;;26.00;27.30;;;;;;2041627;62;20858;-66
2024/04/12 08:28:06;0.00;0.00;0.62;0.00;0.00;0.62;5.70;5.00;;;26.00;26.70;;;;;;2041812;62;20532;-68
2024/04/12 08:30:53;0.00;0.00;0.62;0.00;0.00;0.62;6.47;4.50;;;26.00;26.70;;;;;;2041679;62;20918;-68
2024/04/12 08:33:45;0.00;0.00;0.62;0.00;0.00;0.62;5.40;4.40;;;26.00;26.80;;;;;;2041621;62;20847;-69
2024/04/12 08:36:33;0.00;0.00;0.62;0.00;0.00;0.62;5.00;4.10;;;26.00;26.70;;;;;;2041585;62;20639;-67
2024/04/12 08:39:29;0.00;0.00;0.62;0.00;0.00;0.62;5.27;4.40;;;26.00;26.80;;;;;;2041520;62;20469;-68
2024/04/12 08:42:17;0.00;0.00;0.62;0.00;0.00;0.62;6.80;4.07;;;26.00;26.80;;;;;;2041752;62;20461;-66
2024/04/12 08:45:12;0.00;0.00;0.62;0.00;0.00;0.62;4.70;4.03;;;26.10;26.80;;;;;;2041118;62;20457;-67
2024/04/12 08:48:03;0.00;0.00;0.62;0.00;0.00;0.62;4.97;3.80;;;26.00;26.80;;;;;;2037370;62;20474;-68
2024/04/12 08:50:50;0.00;0.00;0.62;0.00;0.00;0.62;4.40;3.80;;;26.00;26.80;;;;;;2037412;62;20547;-67
2024/04/12 08:53:44;0.00;0.00;0.62;0.00;0.00;0.62;4.33;3.70;;;26.10;26.90;;;;;;2038003;62;20454;-67
2024/04/12 08:56:29;0.00;0.00;0.62;0.00;0.00;0.62;7.50;4.17;;;26.10;26.90;;;;;;2041222;62;20511;-68
2024/04/12 08:59:21;0.00;0.00;0.62;0.00;0.00;0.62;4.97;4.10;;;26.10;26.90;;;;;;2037250;62;20909;-68
2024/04/12 09:02:08;0.00;0.00;0.62;0.00;0.00;0.62;3.53;3.20;;;26.10;26.90;;;;;;2041758;62;20465;-67
2024/04/12 09:04:53;0.00;0.00;0.62;0.00;0.00;0.62;4.13;3.43;;;26.10;26.90;;;;;;2041808;62;20522;-67
2024/04/12 09:07:42;0.00;0.00;0.62;0.00;0.00;0.62;4.70;3.50;;;26.10;26.90;;;;;;2041568;62;20513;-68
2024/04/12 09:10:34;0.00;0.00;0.62;0.00;0.00;0.62;4.40;3.23;;;26.10;26.80;;;;;;2041629;62;20474;-67
2024/04/12 09:13:19;0.00;0.00;0.62;0.00;0.00;0.62;4.83;3.97;;;26.10;26.90;;;;;;2040817;62;20470;-67
2024/04/12 09:16:10;0.00;0.00;0.62;0.00;0.00;0.62;5.20;3.43;;;26.10;26.90;;;;;;2041333;62;20878;-69
2024/04/12 09:18:54;0.00;0.00;0.62;0.00;0.00;0.62;3.73;3.13;;;26.10;26.90;;;;;;2041077;62;20465;-67
2024/04/12 09:21:47;0.00;0.00;0.62;0.00;0.00;0.62;3.70;3.00;;;26.10;26.90;;;;;;2037461;62;21033;-67
2024/04/12 09:24:39;0.00;0.00;0.62;0.00;0.00;0.62;3.50;3.20;;;26.10;26.90;;;;;;2041632;62;20937;-69
2024/04/12 09:27:33;0.00;0.00;0.62;0.00;0.00;0.62;4.17;3.63;;;26.20;26.90;;;;;;2041679;62;20457;-69
2024/04/12 09:33:27;0.00;0.00;0.62;0.00;0.00;0.62;2.90;2.60;;;26.10;26.90;;;;;;2041540;62;20457;-64
2024/04/12 09:36:15;0.00;0.00;0.62;0.00;0.00;0.62;3.37;3.03;;;26.10;27.00;;;;;;2041709;62;20472;-65
2024/04/12 09:39:00;0.00;0.00;0.62;0.00;0.00;0.62;3.23;2.70;;;26.10;27.00;;;;;;2041652;62;20502;-66
2024/04/12 09:41:56;0.00;0.00;0.62;0.00;0.00;0.62;3.23;2.77;;;26.10;27.00;;;;;;2041884;62;20461;-66
2024/04/12 09:44:48;0.00;0.00;0.62;0.00;0.00;0.62;4.00;3.30;;;26.20;27.00;;;;;;2041648;62;20489;-65
2024/04/12 10:37:31;0.00;0.00;0.62;0.00;0.00;0.62;3.70;3.07;;;26.20;27.30;;;;;;2041734;62;20481;-67
2024/04/12 10:40:16;0.00;0.00;0.62;0.00;0.00;0.62;4.63;2.80;;;26.20;27.30;;;;;;2040918;62;20541;-67
2024/04/12 10:43:02;0.00;0.00;0.62;0.00;0.00;0.62;4.00;2.97;;;26.20;27.30;;;;;;2041385;62;20461;-68
2024/04/12 10:45:48;0.00;0.00;0.62;0.00;0.00;0.62;4.17;2.90;;;26.20;27.30;;;;;;2041465;62;20956;-68
2024/04/12 10:48:34;0.00;0.00;0.62;0.00;0.00;0.62;2.80;2.30;;;26.20;27.30;;;;;;2041207;62;21025;-68
2024/04/12 10:51:19;0.00;0.00;0.62;0.00;0.00;0.62;2.50;2.30;;;26.20;27.80;;;;;;2042474;62;20460;-68
2024/04/12 10:54:11;0.00;0.00;0.62;0.00;0.00;0.62;2.60;2.40;;;26.20;27.30;;;;;;2037957;62;20485;-69
2024/04/12 10:56:56;0.00;0.00;0.62;0.00;0.00;0.62;2.90;2.37;;;26.30;27.40;;;;;;2038413;62;20465;-68
2024/04/12 10:59:42;0.00;0.00;0.62;0.00;0.00;0.62;3.17;2.57;;;26.30;27.40;;;;;;2042610;62;20471;-66
2024/04/12 11:02:28;0.00;0.00;0.62;0.00;0.00;0.62;2.70;2.30;;;26.30;27.40;;;;;;2041229;62;20465;-67
2024/04/12 11:08:06;0.00;0.00;0.62;0.00;0.00;0.62;4.50;2.80;;;26.30;27.40;;;;;;2041726;62;20477;-67
2024/04/12 11:10:54;0.00;0.00;0.62;0.00;0.00;0.62;3.60;2.77;;;26.30;27.40;;;;;;2037990;62;20457;-67
2024/04/12 11:13:45;0.00;0.00;0.62;0.00;0.00;0.62;2.60;2.20;;;26.30;27.40;;;;;;2041747;62;20493;-69
2024/04/12 11:31:55;0.00;0.00;0.62;0.00;0.00;0.62;2.93;1.97;;;26.30;27.50;;;;;;2037707;62;20473;-65
2024/04/12 11:34:42;0.00;0.00;0.62;0.00;0.00;0.62;2.67;2.47;;;26.30;27.50;;;;;;2041914;62;20461;-67
2024/04/12 11:37:28;0.00;0.00;0.62;0.00;0.00;0.62;2.37;2.03;;;26.30;27.50;;;;;;2041976;62;20461;-66
2024/04/12 11:40:16;0.00;0.00;0.62;0.00;0.00;0.62;2.80;2.10;;;26.40;27.60;;;;;;2041735;62;21064;-66
2024/04/12 11:43:05;0.00;0.00;0.62;0.00;0.00;0.62;2.90;2.10;;;26.40;27.60;;;;;;2041721;62;20502;-66
2024/04/12 11:45:53;0.00;0.00;0.62;0.00;0.00;0.62;2.87;2.10;;;26.40;27.60;;;;;;2041733;62;20488;-66
2024/04/12 11:48:37;0.00;0.00;0.62;0.00;0.00;0.62;2.50;2.17;;;26.40;27.60;;;;;;2041428;62;21115;-66
2024/04/12 11:51:22;0.00;0.00;0.62;0.00;0.00;0.62;2.00;1.60;;;26.40;27.60;;;;;;2042082;62;20527;-67
2024/04/12 11:54:11;0.00;0.00;0.62;0.00;0.00;0.62;2.73;1.80;;;26.40;27.60;;;;;;2041623;62;20623;-67
2024/04/12 11:56:59;0.00;0.00;0.62;0.00;0.00;0.62;2.60;2.10;;;26.40;27.60;;;;;;2041754;62;20458;-66
2024/04/12 11:59:46;0.00;0.00;0.62;0.00;0.00;0.62;2.60;2.10;;;26.40;27.60;;;;;;2041532;62;21092;-68
2024/04/12 12:02:33;0.00;0.00;0.62;0.00;0.00;0.62;2.90;2.10;;;26.40;27.60;;;;;;2041887;62;20474;-66
2024/04/12 12:05:20;0.00;0.00;0.62;0.00;0.00;0.62;2.40;2.00;;;26.40;27.60;;;;;;2041626;62;20535;-67
2024/04/12 12:08:06;0.00;0.00;0.62;0.00;0.00;0.62;2.93;2.00;;;26.40;27.60;;;;;;2041646;62;20943;-68
2024/04/12 12:10:51;0.00;0.00;0.62;0.00;0.00;0.62;2.60;2.00;;;26.40;27.70;;;;;;2041509;62;20472;-66
2024/04/12 12:13:35;0.00;0.00;0.62;0.00;0.00;0.62;3.63;2.43;;;26.40;27.70;;;;;;2041323;62;20519;-67
2024/04/12 12:16:20;0.00;0.00;0.62;0.00;0.00;0.62;2.57;1.93;;;26.40;27.70;;;;;;2041738;62;20465;-68
2024/04/12 12:19:08;0.00;0.00;0.62;0.00;0.00;0.62;2.60;2.10;;;26.40;27.70;;;;;;2041394;62;20461;-67